Time;durP1;ratioP1;P1;durP2;ratioP2;P2;SDS_P1;SDS_P2;PMS_P1;PMS_P2;Temp;Humidity;BMP_temperature;BMP_pressure;BME280_temperature;BME280_humidity;BME280_pressure;Samples;Min_cycle;Max_cycle;Signal;HPM_P1;HPM_P2
2023/04/16 00:01:51;;;;;;;24.67;13.37;;;;;;;6.34;69.10;100870.97;20824634;28;20224;-85
2023/04/16 00:11:54;;;;;;;24.63;14.03;;;;;;;5.72;71.49;100864.44;20784154;28;20224;-85
2023/04/16 00:21:56;;;;;;;25.57;15.10;;;;;;;5.76;71.44;100862.72;20828674;28;20609;-87
2023/04/16 00:31:58;;;;;;;30.13;16.40;;;;;;;6.58;67.54;100871.78;20791779;28;20231;-84
2023/04/16 00:42:01;;;;;;;28.50;16.70;;;;;;;6.02;69.41;100863.25;20807008;28;20212;-83
2023/04/16 00:52:03;;;;;;;24.77;16.33;;;;;;;5.80;70.49;100877.78;20821409;28;20193;-86
2023/04/16 01:02:05;;;;;;;29.93;17.80;;;;;;;5.74;71.28;100878.16;20806287;28;20235;-85
2023/04/16 01:12:07;;;;;;;23.97;15.97;;;;;;;5.24;72.48;100875.53;20799825;28;20256;-86
2023/04/16 01:22:10;;;;;;;26.90;16.43;;;;;;;5.56;72.79;100888.13;20791346;28;20267;-86
2023/04/16 01:32:12;;;;;;;24.03;15.43;;;;;;;6.22;70.94;100887.38;20799333;28;20205;-84
2023/04/16 01:42:15;;;;;;;23.63;14.83;;;;;;;5.51;73.22;100900.25;20791440;28;20220;-84
2023/04/16 01:52:17;;;;;;;23.13;13.83;;;;;;;5.42;72.68;100892.75;20830574;28;20200;-85
2023/04/16 02:02:20;;;;;;;28.50;15.43;;;;;;;5.24;74.36;100892.34;20805994;28;20217;-84
2023/04/16 02:12:22;;;;;;;23.93;16.20;;;;;;;5.16;74.28;100883.69;20804228;28;20224;-87
2023/04/16 02:22:24;;;;;;;25.57;15.17;;;;;;;5.98;71.02;100891.03;20810032;28;20232;-86
2023/04/16 02:32:27;;;;;;;27.30;17.63;;;;;;;5.89;71.66;100895.63;20800254;28;20493;-86
2023/04/16 02:42:29;;;;;;;27.17;17.53;;;;;;;5.83;70.92;100899.63;20825284;28;20224;-86
2023/04/16 02:52:32;;;;;;;23.67;17.00;;;;;;;5.68;71.14;100905.38;20809263;28;20193;-87
2023/04/16 03:02:34;;;;;;;31.27;18.27;;;;;;;5.88;71.41;100896.78;20826397;28;20602;-87
2023/04/16 03:12:38;;;;;;;28.07;18.97;;;;;;;5.59;72.29;100898.75;20808304;28;20279;-85
2023/04/16 03:22:41;;;;;;;28.67;18.77;;;;;;;6.10;70.16;100898.19;20806959;28;20220;-87
2023/04/16 03:32:43;;;;;;;26.27;18.30;;;;;;;6.52;68.07;100903.00;20806725;28;20216;-84
2023/04/16 03:42:45;;;;;;;26.27;18.20;;;;;;;5.98;69.95;100913.47;20815757;28;20702;-86
2023/04/16 03:52:48;;;;;;;33.73;19.70;;;;;;;5.61;71.75;100914.13;20806912;28;20502;-82
2023/04/16 04:02:51;;;;;;;34.83;19.03;;;;;;;6.50;69.29;100919.28;20806622;28;20236;-83
2023/04/16 04:12:54;;;;;;;38.20;20.33;;;;;;;6.26;70.64;100919.31;20789038;28;20224;-87
2023/04/16 04:22:57;;;;;;;38.40;22.13;;;;;;;6.08;71.17;100922.88;20806600;28;20644;-86
2023/04/16 04:33:00;;;;;;;36.70;23.00;;;;;;;5.81;70.97;100941.09;20779907;28;20323;-85
2023/04/16 04:43:03;;;;;;;32.83;21.13;;;;;;;6.92;67.07;100946.50;20788173;28;20224;-86
2023/04/16 04:53:09;;;;;;;38.00;23.00;;;;;;;6.40;69.09;100948.31;20799966;28;20201;-83
2023/04/16 05:03:18;;;;;;;39.67;22.60;;;;;;;6.87;67.35;100952.19;20777233;28;20294;-87
2023/04/16 05:13:20;;;;;;;38.33;22.37;;;;;;;6.33;68.65;100971.06;20791811;28;20221;-84
2023/04/16 05:23:22;;;;;;;38.40;23.43;;;;;;;6.21;69.79;100979.06;20790350;28;20229;-84
2023/04/16 05:33:24;;;;;;;31.87;21.47;;;;;;;6.36;68.30;100976.09;20788374;28;20259;-85
2023/04/16 05:43:26;;;;;;;36.07;23.70;;;;;;;6.59;66.81;100985.66;20777133;28;20224;-85
2023/04/16 05:53:28;;;;;;;35.60;23.23;;;;;;;6.43;67.76;101011.38;20815002;28;20223;-85
2023/04/16 06:03:30;;;;;;;33.40;23.27;;;;;;;6.73;66.74;101019.44;20799196;28;20224;-83
2023/04/16 06:13:33;;;;;;;32.97;20.80;;;;;;;6.87;65.39;101016.75;20774574;28;20471;-85
2023/04/16 06:23:35;;;;;;;29.93;22.27;;;;;;;6.55;66.35;101021.06;20804680;28;20290;-83
2023/04/16 06:33:37;;;;;;;29.23;21.30;;;;;;;6.93;65.10;101023.97;20838311;28;20188;-84
2023/04/16 06:43:39;;;;;;;33.00;22.90;;;;;;;6.90;65.46;101030.19;20834013;28;20266;-83
2023/04/16 06:53:41;;;;;;;34.73;23.90;;;;;;;6.17;67.77;101041.66;20823290;28;20667;-82
2023/04/16 07:03:43;;;;;;;36.27;23.27;;;;;;;6.96;65.60;101040.22;20828892;28;20220;-86
2023/04/16 07:13:46;;;;;;;34.10;21.83;;;;;;;6.47;67.04;101058.16;20894351;28;20191;-82
2023/04/16 07:23:48;;;;;;;28.87;21.87;;;;;;;6.87;65.18;101064.44;20872532;28;20227;-81
2023/04/16 07:33:52;;;;;;;28.97;22.03;;;;;;;6.68;64.63;101070.03;20884934;28;20196;-84
2023/04/16 07:43:59;;;;;;;30.10;21.87;;;;;;;7.24;63.32;101066.47;20866687;28;20243;-81
2023/04/16 07:54:02;;;;;;;30.07;21.03;;;;;;;7.19;63.27;101070.22;20857356;28;20192;-83
2023/04/16 08:04:04;;;;;;;30.10;22.33;;;;;;;6.81;63.98;101088.13;20872585;28;20640;-83
2023/04/16 08:14:06;;;;;;;27.73;20.57;;;;;;;6.89;63.63;101099.50;20856781;28;20200;-82
2023/04/16 08:24:08;;;;;;;29.60;21.93;;;;;;;7.19;62.10;101117.97;20885314;28;20220;-85
2023/04/16 08:34:12;;;;;;;25.60;19.83;;;;;;;7.64;60.47;101129.72;20866309;28;20238;-85
2023/04/16 08:44:20;;;;;;;26.57;20.50;;;;;;;7.21;61.28;101128.88;20883331;28;20224;-85
2023/04/16 08:54:31;;;;;;;25.30;19.93;;;;;;;7.80;61.11;101139.59;20879418;28;20179;-82
2023/04/16 09:04:35;;;;;;;24.83;19.37;;;;;;;7.65;60.26;101139.81;20871655;28;20219;-83
2023/04/16 09:14:40;;;;;;;26.08;20.60;;;;;;;8.62;57.63;101145.53;20888876;28;20203;-85
2023/04/16 09:24:42;;;;;;;26.70;20.40;;;;;;;7.78;59.22;101153.94;20879020;28;20301;-82
2023/04/16 09:34:59;;;;;;;25.53;19.60;;;;;;;8.54;57.70;101168.75;20856667;28;20188;-83
2023/04/16 09:45:03;;;;;;;24.87;19.37;;;;;;;8.61;57.34;101174.81;20863113;28;20281;-84
2023/04/16 09:55:07;;;;;;;24.47;20.23;;;;;;;8.44;58.33;101177.38;20871384;28;20540;-86
2023/04/16 10:05:15;;;;;;;25.53;20.17;;;;;;;8.28;57.07;101182.41;20895823;28;20265;-85
2023/04/16 10:15:17;;;;;;;23.25;19.50;;;;;;;8.93;55.82;101187.22;20855690;28;20262;-82
2023/04/16 10:25:20;;;;;;;22.50;18.87;;;;;;;9.47;54.72;101181.59;20898187;28;20227;-84
2023/04/16 10:35:24;;;;;;;23.40;19.13;;;;;;;9.24;54.86;101185.47;20854123;28;20195;-80
2023/04/16 10:45:31;;;;;;;23.30;17.52;;;;;;;10.03;52.70;101173.91;20862169;28;20223;-79
2023/04/16 10:55:37;;;;;;;28.20;18.73;;;;;;;9.42;53.37;101173.28;20854930;28;20204;-85
2023/04/16 11:05:45;;;;;;;22.08;18.23;;;;;;;9.66;52.62;101172.22;20867859;28;20544;-82
2023/04/16 11:15:48;;;;;;;20.38;18.15;;;;;;;9.94;52.32;101167.38;20794036;28;20555;-82
2023/04/16 11:25:55;;;;;;;21.42;18.38;;;;;;;9.87;51.44;101165.78;20798700;28;20267;-83
2023/04/16 11:35:58;;;;;;;18.02;15.93;;;;;;;9.85;50.89;101172.91;20791742;28;20231;-84
2023/04/16 11:46:05;;;;;;;18.48;15.68;;;;;;;10.13;50.75;101171.66;20813047;28;20231;-86
2023/04/16 11:56:34;;;;;;;15.63;13.70;;;;;;;10.54;48.27;101173.50;20802259;28;20192;-85
2023/04/16 12:06:36;;;;;;;14.48;12.98;;;;;;;10.25;48.43;101171.94;20826818;28;20220;-85
2023/04/16 12:16:39;;;;;;;14.20;12.70;;;;;;;10.43;47.06;101180.53;20813769;28;20839;-82
2023/04/16 12:26:45;;;;;;;16.45;13.30;;;;;;;10.39;48.25;101176.69;20789260;28;20270;-82
2023/04/16 12:37:02;;;;;;;13.60;12.18;;;;;;;10.79;47.54;101181.31;20789261;28;20737;-84
2023/04/16 12:47:05;;;;;;;14.27;12.77;;;;;;;10.55;47.84;101186.47;20769761;28;20220;-82
2023/04/16 12:57:07;;;;;;;14.60;12.98;;;;;;;9.92;48.95;101179.78;20790027;28;20221;-83
2023/04/16 13:07:10;;;;;;;14.27;12.73;;;;;;;10.30;48.46;101181.44;20799595;28;20256;-83
2023/04/16 13:17:12;;;;;;;15.20;12.63;;;;;;;10.35;48.44;101178.47;20782040;28;20243;-83
2023/04/16 13:27:15;;;;;;;17.27;13.65;;;;;;;10.53;47.99;101180.31;20809129;28;20293;-83
2023/04/16 13:37:18;;;;;;;15.63;13.27;;;;;;;11.81;45.49;101167.06;20809249;28;20231;-83
2023/04/16 13:47:20;;;;;;;14.75;12.52;;;;;;;11.20;46.59;101161.22;20779650;28;20682;-82
2023/04/16 13:57:24;;;;;;;14.98;12.85;;;;;;;11.41;46.98;101158.66;20775143;28;20200;-84
2023/04/16 14:07:28;;;;;;;15.18;11.98;;;;;;;10.79;46.86;101164.34;20782138;28;20274;-84
2023/04/16 14:17:30;;;;;;;11.97;10.67;;;;;;;10.90;47.08;101162.91;20809845;28;20208;-84
2023/04/16 14:27:33;;;;;;;13.70;11.17;;;;;;;11.24;46.04;101164.25;20764574;28;20220;-83
2023/04/16 14:37:35;;;;;;;13.05;10.68;;;;;;;11.31;46.06;101164.59;20800780;28;20556;-84
2023/04/16 14:47:44;;;;;;;13.85;10.32;;;;;;;11.14;44.84;101170.16;20822535;28;20235;-84
2023/04/16 14:57:47;;;;;;;11.85;10.55;;;;;;;11.97;43.78;101154.09;20808827;28;20202;-84
2023/04/16 15:07:50;;;;;;;13.52;11.15;;;;;;;11.50;44.05;101161.53;20824376;28;20312;-83
2023/04/16 15:17:52;;;;;;;12.15;10.35;;;;;;;11.73;43.37;101154.59;20863043;28;20659;-84
2023/04/16 15:27:54;;;;;;;12.50;10.73;;;;;;;11.07;45.81;101170.66;20872451;28;20320;-83
2023/04/16 15:37:57;;;;;;;11.63;10.18;;;;;;;10.54;46.90;101165.88;20866130;28;20196;-83
2023/04/16 15:47:59;;;;;;;11.15;10.02;;;;;;;11.08;45.26;101169.50;20882311;28;20215;-85
2023/04/16 15:58:02;;;;;;;10.93;9.35;;;;;;;11.60;44.35;101162.06;20900502;28;20196;-82
2023/04/16 16:08:10;;;;;;;9.67;8.07;;;;;;;10.88;44.68;101165.22;20858284;28;20233;-82
2023/04/16 16:18:13;;;;;;;9.07;8.13;;;;;;;11.61;43.19;101169.38;20816535;28;20497;-82
2023/04/16 16:28:15;;;;;;;9.13;8.20;;;;;;;11.34;44.27;101175.25;20794315;28;20949;-84
2023/04/16 16:38:18;;;;;;;11.85;8.98;;;;;;;11.52;43.67;101171.31;20801691;28;20197;-84
2023/04/16 16:48:21;;;;;;;14.00;8.60;;;;;;;11.80;43.86;101176.72;20792111;28;20245;-84
2023/04/16 16:58:23;;;;;;;9.93;7.97;;;;;;;11.90;43.25;101180.06;20794022;28;20189;-85
2023/04/16 17:08:25;;;;;;;10.63;8.83;;;;;;;11.29;44.30;101183.88;20850382;28;20255;-83
2023/04/16 17:18:27;;;;;;;10.10;8.48;;;;;;;10.42;46.38;101198.63;20874584;28;20211;-84
2023/04/16 17:28:29;;;;;;;10.57;9.30;;;;;;;10.66;46.19;101184.22;20895628;28;20740;-83
2023/04/16 17:38:32;;;;;;;12.27;9.13;;;;;;;11.33;45.21;101190.53;20872933;28;20195;-84
2023/04/16 17:48:34;;;;;;;12.95;9.68;;;;;;;11.22;45.19;101194.81;20854266;28;20278;-83
2023/04/16 17:58:37;;;;;;;10.90;9.53;;;;;;;11.12;45.32;101195.13;20872511;28;20593;-83
2023/04/16 18:08:39;;;;;;;12.30;10.40;;;;;;;11.58;45.09;101198.31;20886293;28;20246;-82
2023/04/16 18:18:42;;;;;;;12.65;10.45;;;;;;;11.51;46.14;101206.41;20882880;28;20211;-84
2023/04/16 18:28:44;;;;;;;13.63;10.33;;;;;;;11.43;47.04;101218.53;20880949;28;20235;-82
2023/04/16 18:38:48;;;;;;;14.38;10.75;;;;;;;11.31;46.92;101221.13;20859014;28;20215;-80
2023/04/16 18:49:02;;;;;;;13.82;11.02;;;;;;;11.52;47.19;101238.34;20868638;28;20273;-82
2023/04/16 18:59:05;;;;;;;12.13;10.75;;;;;;;11.29;47.40;101240.41;20870786;28;20545;-81
2023/04/16 19:09:07;;;;;;;12.98;10.90;;;;;;;10.99;47.33;101242.09;20810528;28;20232;-81
2023/04/16 19:19:12;;;;;;;14.30;11.23;;;;;;;10.71;50.20;101252.69;20793184;28;20244;-83
2023/04/16 19:29:16;;;;;;;16.60;13.45;;;;;;;10.17;53.89;101260.19;20797169;28;20236;-82
2023/04/16 19:39:18;;;;;;;19.27;15.40;;;;;;;10.19;57.63;101260.69;20803814;28;20197;-82
2023/04/16 19:49:21;;;;;;;24.43;17.33;;;;;;;9.40;63.20;101274.22;20823617;28;20224;-81
2023/04/16 19:59:26;;;;;;;21.98;15.60;;;;;;;8.85;64.95;101276.91;20819839;28;20196;-81
2023/04/16 20:09:29;;;;;;;22.35;16.98;;;;;;;9.54;64.19;101291.97;20812089;28;20634;-79
2023/04/16 20:19:36;;;;;;;26.37;18.50;;;;;;;9.07;66.14;101283.84;20813996;28;20267;-80
2023/04/16 20:29:40;;;;;;;23.83;17.40;;;;;;;9.74;63.18;101296.38;20806272;28;20221;-81
2023/04/16 20:39:44;;;;;;;24.73;17.60;;;;;;;9.87;63.13;101289.06;20802096;28;20258;-83
2023/04/16 20:49:46;;;;;;;27.17;18.43;;;;;;;10.30;62.01;101288.69;20819823;28;20212;-81
2023/04/16 20:59:48;;;;;;;28.90;18.92;;;;;;;10.12;62.45;101287.66;20822109;28;20675;-83
2023/04/16 21:09:50;;;;;;;27.83;19.67;;;;;;;9.95;62.39;101288.34;20807332;28;20224;-81
2023/04/16 21:19:52;;;;;;;27.52;18.90;;;;;;;9.98;62.32;101290.50;20782110;28;20219;-82
2023/04/16 21:29:54;;;;;;;25.37;19.90;;;;;;;10.18;61.84;101284.44;20819523;28;20228;-84
2023/04/16 21:39:56;;;;;;;25.53;19.93;;;;;;;10.03;63.02;101287.59;20804145;28;20192;-81
2023/04/16 21:49:59;;;;;;;25.97;19.63;;;;;;;9.97;63.38;101288.81;20813526;28;20219;-84
2023/04/16 22:00:01;;;;;;;26.63;20.47;;;;;;;9.84;64.78;101289.69;20791864;28;20589;-85
2023/04/16 22:10:07;;;;;;;29.40;19.75;;;;;;;10.21;62.63;101277.31;20820389;28;20232;-81
2023/04/16 22:20:12;;;;;;;30.17;20.73;;;;;;;10.17;62.24;101282.75;20817609;28;20217;-82
2023/04/16 22:30:14;;;;;;;25.58;19.55;;;;;;;9.91;61.85;101284.47;20802800;28;20220;-82
2023/04/16 22:40:17;;;;;;;25.53;18.40;;;;;;;9.81;62.49;101282.69;20794168;28;20213;-81
2023/04/16 22:50:19;;;;;;;24.13;17.88;;;;;;;9.30;63.69;101277.22;20809837;28;20220;-81
2023/04/16 23:00:21;;;;;;;23.37;17.87;;;;;;;9.86;61.02;101288.22;20811108;28;20258;-80
2023/04/16 23:10:23;;;;;;;26.53;18.80;;;;;;;9.74;61.86;101281.44;20874783;28;20224;-83
2023/04/16 23:20:27;;;;;;;24.67;18.07;;;;;;;9.73;62.16;101291.88;20882756;28;20616;-81
2023/04/16 23:30:29;;;;;;;21.13;18.53;;;;;;;9.81;62.15;101301.59;20874932;28;20250;-81
2023/04/16 23:40:31;;;;;;;23.10;19.53;;;;;;;9.78;62.22;101293.78;20893342;28;20195;-81
2023/04/16 23:50:34;;;;;;;26.60;19.77;;;;;;;9.53;62.93;101301.56;20888350;28;20978;-81
